Pagrindinis puslapis
METAR-TAF:

METAR-TAF

Oro uostai :

Ipohas, Malaizija

platuma: 04-34-09N, ilguma: 101-05-35E, Aukštis: 40 m

Dabartinis oras

Ataskaita buvo paskelbta 59 minutes, ne 20:00 UTC
Vėjas 4 kt iš Šiaurės Rytų
Temperatūra 24°C
Drėgmė 83%
Slėgis 1009 hPa
Matomumas: 7000 m
Mažai debesys ne aukštis 3000 ft
Su prošvaistėmis ne aukštis 28000 ft

METAR: WMKI 202000Z 04004KT 7000 FEW030 BKN280 24/21 Q1009

Laikas: 04:59 (20:59 UTC)

Prognozė

Ataskaita buvo paskelbta 3 valandos ir 59 minutes, ne 17:00 UTC
Prognozė galioja nuo 20 metu 18 UTC su 21 metu 18 UTC
Vėjas 5 kt iš Šiaurės Rytų
Matomumas: 8000 m
Mažai debesys ne aukštis 3000 ft
Tapsmas
nuo 21 metu 00 UTC su 21 metu 02 UTC
Matomumas: 6000 m
Mažai debesys ne aukštis 2000 ft
Laikinai
nuo 21 metu 08 UTC su 21 metu 12 UTC
Vėjas 10 kt iš Pietvakarių
Matomumas: 5000 m
Mažai debesys ne aukštis 1700 ft, Liūtiniai kamuoliniai debesys.
perkūnija, lietus

TAF: WMKI 201700Z 2018/2118 04005KT 8000 FEW030 BECMG 2100/2102 6000 FEW020 TEMPO 2108/2112 23010KT 5000 TSRA FEW017CB

Orai ataskaitas ir orų prognozės (METAR, TAF).

turimą stotys yra geltonos ir raudonos taškus žemėlapyje.

Perkelti pele per norėdami pamatyti stoties vardą.

Tada spustelėkite, norėdami matyti oro stebėjimo ir prognozės.

Norėdami pakeisti žemėlapį: spustelėkite ant žalios mygtukų su juodo kryžiaus žemyn,; žalią mygtuką su brūkšneliu, jei norite nutolinti; arba žalių rodyklių gretimoms žemėlapius.


METAR-TAF: